Time;durP1;ratioP1;P1;durP2;ratioP2;P2;SDS_P1;SDS_P2;PMS_P1;PMS_P2;Temp;Humidity;BMP_temperature;BMP_pressure;BME280_temperature;BME280_humidity;BME280_pressure;Samples;Min_cycle;Max_cycle;Signal;HPM_P1;HPM_P2
2021/04/08 00:00:18;;;;;;;4.87;2.00;;;3.10;99.90;;;;;;5093254;28;20294;-63
2021/04/08 00:02:45;;;;;;;3.93;2.00;;;3.10;99.90;;;;;;5092967;28;20222;-62
2021/04/08 00:05:15;;;;;;;2.93;1.80;;;3.10;99.90;;;;;;5093263;28;20213;-62
2021/04/08 00:07:42;;;;;;;4.00;2.20;;;3.10;99.90;;;;;;5092770;28;20239;-62
2021/04/08 00:10:10;;;;;;;2.73;2.10;;;3.10;99.90;;;;;;5092996;28;20305;-63
2021/04/08 00:12:37;;;;;;;2.90;1.80;;;3.10;99.90;;;;;;5092443;28;20235;-63
2021/04/08 00:15:05;;;;;;;3.53;2.17;;;3.10;99.90;;;;;;5092917;28;20200;-63
2021/04/08 00:17:32;;;;;;;5.30;2.17;;;3.00;99.90;;;;;;5092827;28;20206;-63
2021/04/08 00:19:59;;;;;;;4.63;2.27;;;2.90;99.90;;;;;;5092747;28;20200;-62
2021/04/08 00:22:27;;;;;;;3.80;2.00;;;3.00;99.90;;;;;;5092749;28;20225;-63
2021/04/08 00:24:53;;;;;;;3.50;1.90;;;3.00;99.90;;;;;;5092881;28;20196;-62
2021/04/08 00:27:20;;;;;;;2.97;1.90;;;2.90;99.90;;;;;;5092343;28;20234;-63
2021/04/08 00:29:47;;;;;;;4.60;2.00;;;3.00;99.90;;;;;;5092718;28;20200;-63
2021/04/08 00:32:14;;;;;;;3.63;1.73;;;3.00;99.90;;;;;;5092784;28;20200;-62
2021/04/08 00:34:40;;;;;;;5.53;2.43;;;3.10;99.90;;;;;;5092809;28;20325;-63
2021/04/08 00:37:07;;;;;;;4.87;2.23;;;3.00;99.90;;;;;;5092428;28;20225;-63
2021/04/08 00:39:35;;;;;;;4.70;1.87;;;3.00;99.90;;;;;;5092474;28;20203;-63
2021/04/08 00:42:02;;;;;;;5.80;2.33;;;3.00;99.90;;;;;;5092987;28;20228;-63
2021/04/08 00:44:29;;;;;;;4.60;2.40;;;3.00;99.90;;;;;;5096724;28;20209;-62
2021/04/08 00:46:55;;;;;;;4.80;2.03;;;2.90;99.90;;;;;;5096847;28;20211;-62
2021/04/08 00:49:22;;;;;;;4.67;2.23;;;3.00;99.90;;;;;;5096569;28;20203;-63
2021/04/08 00:51:49;;;;;;;3.70;1.90;;;2.80;99.90;;;;;;5096111;28;20199;-62
2021/04/08 00:54:16;;;;;;;3.67;2.10;;;2.70;99.90;;;;;;5096387;28;20214;-63
2021/04/08 00:56:44;;;;;;;3.60;2.27;;;2.70;99.90;;;;;;5096013;28;20209;-63
2021/04/08 00:59:12;;;;;;;3.27;1.80;;;2.60;99.90;;;;;;5096527;28;20204;-63
2021/04/08 01:01:39;;;;;;;4.93;2.10;;;2.50;99.90;;;;;;5096193;28;20580;-63
2021/04/08 01:04:06;;;;;;;8.53;2.17;;;2.40;99.90;;;;;;5096596;28;20606;-63
2021/04/08 01:06:34;;;;;;;4.63;2.00;;;2.30;99.90;;;;;;5096457;28;20218;-63
2021/04/08 01:09:00;;;;;;;4.10;2.17;;;2.30;99.90;;;;;;5096204;28;20295;-64
2021/04/08 01:11:27;;;;;;;3.47;2.07;;;2.30;99.90;;;;;;5095939;28;20196;-62
2021/04/08 01:13:55;;;;;;;4.40;2.30;;;2.30;99.90;;;;;;5096452;28;20196;-63
2021/04/08 01:16:31;;;;;;;6.97;2.27;;;2.30;99.90;;;;;;5095417;28;20231;-63
2021/04/08 01:19:02;;;;;;;4.60;1.93;;;2.30;99.90;;;;;;5096123;28;20233;-65
2021/04/08 01:21:37;;;;;;;3.93;1.93;;;2.30;99.90;;;;;;5095980;28;20208;-63
2021/04/08 01:24:34;;;;;;;2.90;1.80;;;2.20;99.90;;;;;;5096275;28;20180;-62
2021/04/08 01:27:26;;;;;;;5.87;2.00;;;2.10;99.90;;;;;;5095401;28;20255;-63
2021/04/08 01:30:08;;;;;;;6.40;2.43;;;2.20;99.90;;;;;;5095790;28;20658;-63
2021/04/08 01:32:40;;;;;;;6.13;2.90;;;2.30;99.90;;;;;;5095820;28;20666;-62
2021/04/08 01:35:09;;;;;;;3.97;2.30;;;2.20;99.90;;;;;;5096005;28;20184;-63
2021/04/08 01:37:42;;;;;;;3.50;2.13;;;2.30;99.90;;;;;;5095746;28;20559;-63
2021/04/08 01:40:10;;;;;;;5.30;2.40;;;2.30;99.90;;;;;;5095479;28;20670;-62
2021/04/08 01:42:39;;;;;;;4.17;2.07;;;2.30;99.90;;;;;;5095329;28;20215;-62
2021/04/08 01:45:07;;;;;;;5.27;2.13;;;2.30;99.90;;;;;;5095657;28;20210;-63
2021/04/08 01:47:36;;;;;;;6.27;2.23;;;2.30;99.90;;;;;;5095237;28;20287;-63
2021/04/08 01:50:07;;;;;;;4.37;2.10;;;2.40;99.90;;;;;;5095629;28;20200;-63
2021/04/08 01:52:35;;;;;;;6.03;2.20;;;2.50;99.90;;;;;;5095380;28;20741;-63
2021/04/08 01:55:03;;;;;;;4.77;2.10;;;2.60;99.90;;;;;;5094685;28;20287;-62
2021/04/08 01:57:33;;;;;;;6.93;2.20;;;2.60;99.90;;;;;;5094964;28;20208;-63
2021/04/08 02:00:01;;;;;;;6.90;2.20;;;2.60;99.90;;;;;;5095425;28;20216;-63
2021/04/08 02:02:28;;;;;;;6.07;1.93;;;2.60;99.90;;;;;;5095008;28;20709;-63
2021/04/08 02:04:57;;;;;;;6.87;2.57;;;2.60;99.90;;;;;;5095015;28;20231;-63
2021/04/08 02:07:26;;;;;;;3.37;1.63;;;2.60;99.90;;;;;;5095147;28;20620;-62
2021/04/08 02:09:54;;;;;;;7.90;2.00;;;2.60;99.90;;;;;;5095132;28;20222;-63
2021/04/08 02:12:22;;;;;;;5.50;2.10;;;2.70;99.90;;;;;;5094809;28;20196;-62
2021/04/08 02:14:51;;;;;;;6.70;2.17;;;2.70;99.90;;;;;;5095126;28;20202;-63
2021/04/08 02:17:20;;;;;;;5.07;2.17;;;2.70;99.90;;;;;;5095122;28;20290;-62
2021/04/08 02:19:48;;;;;;;9.03;2.23;;;2.70;99.90;;;;;;5094732;28;20200;-63
2021/04/08 02:22:17;;;;;;;4.70;1.73;;;2.80;99.90;;;;;;5094701;28;20243;-62
2021/04/08 02:24:44;;;;;;;7.00;1.97;;;2.70;99.90;;;;;;5094739;28;20287;-62
2021/04/08 02:27:12;;;;;;;3.90;1.90;;;2.70;99.90;;;;;;5094170;28;20240;-63
2021/04/08 02:29:40;;;;;;;5.03;2.00;;;2.80;99.90;;;;;;5094416;28;20659;-64
2021/04/08 02:32:08;;;;;;;4.80;1.90;;;2.70;99.90;;;;;;5094329;28;20561;-63
2021/04/08 02:34:36;;;;;;;5.47;2.20;;;2.80;99.90;;;;;;5094742;28;20604;-63
2021/04/08 02:37:03;;;;;;;5.40;1.90;;;2.80;99.90;;;;;;5094399;28;20202;-62
2021/04/08 02:39:31;;;;;;;6.60;1.73;;;2.90;99.90;;;;;;5094258;28;20777;-62
2021/04/08 02:41:58;;;;;;;5.17;1.80;;;2.80;99.90;;;;;;5094233;28;20358;-62
2021/04/08 02:44:25;;;;;;;4.57;1.50;;;2.90;99.90;;;;;;5094469;28;20287;-63
2021/04/08 02:46:52;;;;;;;4.37;2.00;;;2.80;99.90;;;;;;5094127;28;20570;-62
2021/04/08 02:49:19;;;;;;;7.87;1.90;;;2.70;99.90;;;;;;5094461;28;20242;-62
2021/04/08 02:51:51;;;;;;;3.93;1.90;;;2.80;99.90;;;;;;5094260;28;20283;-63
2021/04/08 02:54:23;;;;;;;6.90;2.00;;;2.70;99.90;;;;;;5094325;28;20211;-63
2021/04/08 02:56:56;;;;;;;7.13;2.43;;;2.70;99.90;;;;;;5094675;28;20608;-62
2021/04/08 02:59:29;;;;;;;3.57;1.80;;;2.60;99.90;;;;;;5097048;28;20703;-63
2021/04/08 03:02:03;;;;;;;5.63;2.33;;;2.50;99.90;;;;;;5096448;28;20305;-63
2021/04/08 03:04:32;;;;;;;3.77;2.00;;;2.50;99.90;;;;;;5095327;28;20212;-64
2021/04/08 03:07:01;;;;;;;5.70;2.20;;;2.50;99.90;;;;;;5092980;28;20208;-63
2021/04/08 03:09:33;;;;;;;6.63;2.00;;;2.60;99.90;;;;;;5094013;28;20196;-63
2021/04/08 03:12:04;;;;;;;3.37;1.90;;;2.50;99.90;;;;;;5093432;28;20176;-63
2021/04/08 03:14:33;;;;;;;3.97;2.17;;;2.50;99.90;;;;;;5093847;28;20250;-64
2021/04/08 03:17:02;;;;;;;6.10;2.03;;;2.60;99.90;;;;;;5093922;28;20320;-63
2021/04/08 03:19:30;;;;;;;5.00;2.00;;;2.60;99.90;;;;;;5093827;28;20595;-64
2021/04/08 03:21:59;;;;;;;4.90;1.77;;;2.60;99.90;;;;;;5093611;28;20219;-63
2021/04/08 03:24:28;;;;;;;3.27;1.83;;;2.60;99.90;;;;;;5093781;28;20214;-62
2021/04/08 03:26:56;;;;;;;6.47;2.40;;;2.60;99.90;;;;;;5093326;28;20228;-62
2021/04/08 03:29:24;;;;;;;8.20;1.90;;;2.60;99.90;;;;;;5093635;28;20624;-63
2021/04/08 03:31:52;;;;;;;6.30;2.30;;;2.60;99.90;;;;;;5093441;28;20295;-63
2021/04/08 03:34:21;;;;;;;5.70;2.40;;;2.60;99.90;;;;;;5093650;28;20211;-63
2021/04/08 03:36:49;;;;;;;6.60;2.20;;;2.60;99.90;;;;;;5093140;28;20736;-63
2021/04/08 03:39:18;;;;;;;4.00;1.77;;;2.50;99.90;;;;;;5093417;28;20226;-63
2021/04/08 03:41:46;;;;;;;5.57;2.27;;;2.40;99.90;;;;;;5093165;28;20312;-62
2021/04/08 03:44:15;;;;;;;5.77;2.30;;;2.40;99.90;;;;;;5093480;28;20206;-62
2021/04/08 03:46:45;;;;;;;4.73;2.33;;;2.30;99.90;;;;;;5093518;28;20290;-62
2021/04/08 03:49:15;;;;;;;6.27;1.90;;;2.40;99.90;;;;;;5093490;28;20213;-63
2021/04/08 03:51:44;;;;;;;4.07;2.13;;;2.50;99.90;;;;;;5093226;28;20227;-62
2021/04/08 03:54:14;;;;;;;6.47;2.40;;;2.40;99.90;;;;;;5093365;28;20272;-63
2021/04/08 03:56:46;;;;;;;4.87;2.27;;;2.40;99.90;;;;;;5093143;28;20195;-63
2021/04/08 03:59:14;;;;;;;8.47;2.50;;;2.40;99.90;;;;;;5093200;28;20191;-63
2021/04/08 04:01:41;;;;;;;7.30;2.33;;;2.40;99.90;;;;;;5093121;28;20314;-62
2021/04/08 04:04:10;;;;;;;5.73;2.30;;;2.30;99.90;;;;;;5093173;28;20251;-63
2021/04/08 04:06:41;;;;;;;2.60;2.17;;;2.30;99.90;;;;;;5092592;28;20742;-62
2021/04/08 04:09:10;;;;;;;5.90;2.20;;;2.30;99.90;;;;;;5093019;28;20188;-63
2021/04/08 04:11:39;;;;;;;7.73;2.53;;;2.40;99.90;;;;;;5092477;28;20648;-62
2021/04/08 04:14:09;;;;;;;5.67;2.20;;;2.40;99.90;;;;;;5092872;28;20290;-63
2021/04/08 04:16:39;;;;;;;3.83;2.20;;;2.50;99.90;;;;;;5092757;28;20250;-63
2021/04/08 04:19:06;;;;;;;3.20;1.87;;;2.40;99.90;;;;;;5092475;28;20210;-63
2021/04/08 04:21:34;;;;;;;6.10;2.17;;;2.40;99.90;;;;;;5092185;28;20715;-63
2021/04/08 04:24:01;;;;;;;8.03;2.30;;;2.40;99.90;;;;;;5092716;28;20299;-63
2021/04/08 04:26:28;;;;;;;7.80;2.30;;;2.30;99.90;;;;;;5092516;28;20325;-63
2021/04/08 04:28:55;;;;;;;4.43;2.60;;;2.20;99.90;;;;;;5092466;28;20621;-63
2021/04/08 04:31:22;;;;;;;6.73;2.37;;;2.20;99.90;;;;;;5092828;28;20620;-63
2021/04/08 04:33:49;;;;;;;7.07;2.27;;;2.20;99.90;;;;;;5092817;28;20196;-61
2021/04/08 04:36:17;;;;;;;6.37;2.67;;;2.10;99.90;;;;;;5092542;28;20202;-63
2021/04/08 04:38:45;;;;;;;6.13;2.50;;;2.10;99.90;;;;;;5092773;28;20673;-63
2021/04/08 04:41:12;;;;;;;4.03;2.37;;;2.10;99.90;;;;;;5092429;28;20289;-63
2021/04/08 04:43:40;;;;;;;4.57;2.27;;;2.10;99.90;;;;;;5092398;28;20226;-63
2021/04/08 04:46:08;;;;;;;4.63;2.40;;;2.20;99.90;;;;;;5092561;28;20203;-62
2021/04/08 04:48:36;;;;;;;4.90;2.93;;;2.30;99.90;;;;;;5092675;28;20277;-63
2021/04/08 04:51:04;;;;;;;3.47;2.30;;;2.40;99.90;;;;;;5092649;28;20227;-62
2021/04/08 04:53:31;;;;;;;5.70;2.40;;;2.40;99.90;;;;;;5092518;28;20196;-63
2021/04/08 04:56:00;;;;;;;4.77;2.40;;;2.40;99.90;;;;;;5092251;28;20297;-63
2021/04/08 04:58:27;;;;;;;5.53;2.63;;;2.50;99.90;;;;;;5092629;28;20224;-63
2021/04/08 05:00:54;;;;;;;7.67;2.53;;;2.60;99.90;;;;;;5092108;28;20200;-62
2021/04/08 05:03:21;;;;;;;4.63;2.87;;;2.60;99.90;;;;;;5092522;28;20247;-57
2021/04/08 05:05:48;;;;;;;10.33;3.37;;;2.70;99.90;;;;;;5092422;28;20597;-60
2021/04/08 05:08:15;;;;;;;6.57;3.80;;;2.80;99.90;;;;;;5092519;28;20305;-58
2021/04/08 05:10:44;;;;;;;4.93;2.97;;;2.80;99.90;;;;;;5092041;28;20206;-58
2021/04/08 05:13:12;;;;;;;7.27;2.73;;;2.80;99.90;;;;;;5092058;28;20690;-58
2021/04/08 05:15:38;;;;;;;6.53;3.30;;;2.80;99.90;;;;;;5092347;28;20287;-58
2021/04/08 05:18:13;;;;;;;5.83;2.33;;;2.80;99.90;;;;;;5092656;28;20184;-58
2021/04/08 05:20:41;;;;;;;7.27;2.90;;;2.80;99.90;;;;;;5092311;28;20549;-57
2021/04/08 05:23:07;;;;;;;7.67;2.80;;;2.80;99.90;;;;;;5091906;28;20754;-59
2021/04/08 05:25:34;;;;;;;8.23;2.83;;;2.80;99.90;;;;;;5091967;28;20610;-57
2021/04/08 05:28:01;;;;;;;6.13;2.80;;;2.90;99.90;;;;;;5092104;28;20690;-58
2021/04/08 05:30:29;;;;;;;5.33;2.83;;;2.90;99.90;;;;;;5094440;28;20296;-58
2021/04/08 05:32:56;;;;;;;3.37;2.47;;;2.80;99.90;;;;;;5095351;28;20295;-59
2021/04/08 05:35:23;;;;;;;4.87;2.67;;;2.80;99.90;;;;;;5095757;28;20196;-57
2021/04/08 05:37:49;;;;;;;6.20;2.50;;;2.90;99.90;;;;;;5094894;28;20715;-58
2021/04/08 05:40:17;;;;;;;8.53;2.90;;;3.00;99.90;;;;;;5095121;28;20721;-59
2021/04/08 05:42:45;;;;;;;7.17;2.73;;;3.00;99.90;;;;;;5095325;28;20310;-57
2021/04/08 05:45:15;;;;;;;8.43;3.07;;;3.10;99.90;;;;;;5095446;28;20204;-57
2021/04/08 05:47:44;;;;;;;5.53;3.07;;;3.10;99.90;;;;;;5092981;28;20231;-57
2021/04/08 05:50:12;;;;;;;11.57;3.53;;;3.10;99.90;;;;;;5086834;28;20196;-58
2021/04/08 05:52:39;;;;;;;6.60;3.07;;;3.10;99.90;;;;;;5074845;28;20280;-57
2021/04/08 05:55:07;;;;;;;4.90;2.80;;;3.10;99.90;;;;;;5082361;28;20346;-59
2021/04/08 05:57:34;;;;;;;7.57;3.10;;;3.00;99.90;;;;;;5082462;28;20615;-60
2021/04/08 06:00:01;;;;;;;4.60;2.70;;;3.00;99.90;;;;;;5082204;28;20301;-58
2021/04/08 06:02:29;;;;;;;5.70;2.77;;;3.10;99.90;;;;;;5080362;28;20219;-57
2021/04/08 06:04:57;;;;;;;6.90;2.87;;;3.20;99.90;;;;;;5080210;28;20211;-58
2021/04/08 06:07:23;;;;;;;6.53;2.73;;;3.40;99.90;;;;;;5074770;28;20192;-58
2021/04/08 06:09:50;;;;;;;6.17;2.50;;;3.40;99.90;;;;;;5074617;28;20200;-59
2021/04/08 06:12:18;;;;;;;6.93;2.87;;;3.50;99.90;;;;;;5074729;28;20203;-58
2021/04/08 06:14:46;;;;;;;7.27;2.60;;;3.50;99.90;;;;;;5077196;28;20287;-59
2021/04/08 06:17:13;;;;;;;3.83;2.60;;;3.60;99.90;;;;;;5095000;28;20203;-58
2021/04/08 06:19:40;;;;;;;5.83;2.60;;;3.60;99.90;;;;;;5094044;28;20269;-58
2021/04/08 06:22:08;;;;;;;4.00;2.70;;;3.60;99.90;;;;;;5094394;28;20309;-57
2021/04/08 06:24:35;;;;;;;5.77;2.97;;;3.60;99.90;;;;;;5082796;28;20200;-58
2021/04/08 06:27:02;;;;;;;6.43;3.10;;;3.60;99.90;;;;;;5087506;28;20228;-57
2021/04/08 06:29:29;;;;;;;6.17;3.17;;;3.70;99.90;;;;;;5093485;28;20281;-57
2021/04/08 06:31:58;;;;;;;6.80;2.70;;;3.80;99.90;;;;;;5093303;28;20680;-55
2021/04/08 06:34:24;;;;;;;8.33;3.10;;;3.80;99.90;;;;;;5093368;28;20205;-55
2021/04/08 06:36:51;;;;;;;9.07;2.50;;;3.70;99.90;;;;;;5093355;28;20690;-56
2021/04/08 06:39:20;;;;;;;7.80;3.20;;;3.80;99.90;;;;;;5094111;28;20200;-57
2021/04/08 06:41:47;;;;;;;6.80;2.80;;;4.10;99.90;;;;;;5083256;28;20211;-55
2021/04/08 06:44:17;;;;;;;5.70;2.67;;;4.30;99.90;;;;;;5081898;28;20204;-57
2021/04/08 06:46:44;;;;;;;7.03;3.00;;;4.40;99.90;;;;;;5085849;28;20291;-56
2021/04/08 06:49:19;;;;;;;7.20;2.77;;;4.50;99.90;;;;;;5093950;28;20687;-58
2021/04/08 06:51:54;;;;;;;5.27;2.73;;;4.50;99.90;;;;;;5091673;28;20195;-56
2021/04/08 06:54:22;;;;;;;6.67;3.00;;;4.50;99.90;;;;;;5091378;28;20188;-57
2021/04/08 06:56:50;;;;;;;7.73;2.77;;;4.60;99.90;;;;;;5091158;28;20283;-56
2021/04/08 06:59:17;;;;;;;7.40;3.30;;;4.60;99.90;;;;;;5090911;28;20303;-59
2021/04/08 07:02:14;;;;;;;8.47;3.17;;;4.60;99.90;;;;;;5086794;28;20753;-60
2021/04/08 07:05:07;;;;;;;8.93;2.93;;;4.70;99.90;;;;;;5080710;28;20252;-59
2021/04/08 07:11:47;;;;;;;7.07;2.80;;;5.00;99.90;;;;;;5079518;28;20788;-58
2021/04/08 07:14:16;;;;;;;9.33;2.70;;;5.00;99.90;;;;;;5088787;28;20282;-59
2021/04/08 07:16:42;;;;;;;7.67;2.93;;;5.20;99.90;;;;;;5090011;28;20220;-59
2021/04/08 07:19:09;;;;;;;5.00;2.60;;;5.40;99.90;;;;;;5086787;28;20209;-57
2021/04/08 07:21:39;;;;;;;4.83;2.30;;;5.60;99.90;;;;;;5083852;28;20237;-57
2021/04/08 07:24:11;;;;;;;4.80;2.27;;;5.70;99.90;;;;;;5091306;28;20787;-59
2021/04/08 07:26:51;;;;;;;5.83;2.50;;;5.80;99.90;;;;;;5096956;28;20279;-58
2021/04/08 07:29:18;;;;;;;5.93;2.63;;;6.00;99.90;;;;;;5089921;28;20203;-60
2021/04/08 07:31:45;;;;;;;6.93;2.40;;;6.10;99.90;;;;;;5083348;28;20297;-59
2021/04/08 07:34:12;;;;;;;4.70;2.80;;;6.30;99.90;;;;;;5089614;28;20259;-52
2021/04/08 07:36:42;;;;;;;4.57;2.10;;;6.40;99.90;;;;;;5089291;28;20667;-58
2021/04/08 07:39:16;;;;;;;6.50;2.23;;;6.40;99.90;;;;;;5088974;28;20206;-60
2021/04/08 07:41:44;;;;;;;7.23;2.30;;;6.30;99.90;;;;;;5088192;28;20202;-59
2021/04/08 07:44:13;;;;;;;8.67;2.53;;;6.10;99.90;;;;;;5088967;28;20226;-59
2021/04/08 07:46:41;;;;;;;6.67;2.47;;;5.80;99.90;;;;;;5089159;28;20293;-59
2021/04/08 07:49:26;;;;;;;9.03;2.57;;;5.80;99.90;;;;;;5089124;28;20237;-60
2021/04/08 07:51:53;;;;;;;8.17;2.50;;;5.80;99.90;;;;;;5088313;28;20272;-57
2021/04/08 07:54:22;;;;;;;5.10;2.30;;;5.90;99.90;;;;;;5088944;28;20700;-59
2021/04/08 07:56:50;;;;;;;8.43;2.20;;;6.10;99.90;;;;;;5088364;28;20284;-61
2021/04/08 07:59:21;;;;;;;5.20;2.30;;;6.00;99.90;;;;;;5088509;28;20218;-58
2021/04/08 08:01:50;;;;;;;5.70;2.43;;;6.00;99.90;;;;;;5088527;28;20211;-58
2021/04/08 08:04:25;;;;;;;6.63;2.37;;;6.20;99.90;;;;;;5088512;28;20253;-56
2021/04/08 08:06:53;;;;;;;4.60;2.00;;;6.30;99.90;;;;;;5088354;28;20269;-56
2021/04/08 08:09:22;;;;;;;7.57;2.53;;;6.30;99.90;;;;;;5088661;28;20210;-55
2021/04/08 08:11:49;;;;;;;6.70;2.47;;;6.30;99.90;;;;;;5088400;28;20212;-57
2021/04/08 08:14:30;;;;;;;5.13;1.70;;;6.30;99.90;;;;;;5089108;28;20202;-58
2021/04/08 08:17:05;;;;;;;5.63;1.40;;;6.10;99.90;;;;;;5088092;28;20229;-57
2021/04/08 08:19:33;;;;;;;7.83;1.80;;;6.00;99.90;;;;;;5088110;28;20196;-60
2021/04/08 08:22:00;;;;;;;4.53;1.67;;;5.80;99.90;;;;;;5087861;28;20725;-58
2021/04/08 08:24:28;;;;;;;3.47;1.60;;;5.90;99.90;;;;;;5088247;28;20302;-55
2021/04/08 08:26:55;;;;;;;5.33;1.80;;;6.00;99.90;;;;;;5087922;28;20226;-58
2021/04/08 08:29:25;;;;;;;4.07;2.27;;;6.10;99.90;;;;;;5088489;28;20203;-53
2021/04/08 08:31:54;;;;;;;6.40;2.20;;;6.20;99.90;;;;;;5087911;28;20838;-55
2021/04/08 08:34:24;;;;;;;5.53;2.07;;;6.20;99.90;;;;;;5088116;28;20205;-55
2021/04/08 08:36:52;;;;;;;6.40;2.00;;;6.30;99.90;;;;;;5087895;28;20599;-56
2021/04/08 08:39:21;;;;;;;8.93;2.50;;;6.50;99.90;;;;;;5088152;28;20295;-57
2021/04/08 08:41:49;;;;;;;4.03;2.17;;;6.60;99.90;;;;;;5087706;28;20667;-59
2021/04/08 08:44:19;;;;;;;4.00;2.10;;;6.70;99.90;;;;;;5088513;28;20566;-59
2021/04/08 08:46:50;;;;;;;3.97;2.20;;;6.70;99.90;;;;;;5087988;28;20637;-59
2021/04/08 08:49:23;;;;;;;5.60;2.03;;;6.80;99.90;;;;;;5088105;28;20225;-57
2021/04/08 08:51:52;;;;;;;3.57;2.20;;;6.90;99.90;;;;;;5087816;28;20199;-55
2021/04/08 08:54:19;;;;;;;5.23;2.10;;;6.70;99.90;;;;;;5088012;28;20306;-56
2021/04/08 08:56:47;;;;;;;5.27;2.17;;;6.30;99.90;;;;;;5087420;28;20203;-54
2021/04/08 08:59:15;;;;;;;2.93;1.90;;;5.90;99.90;;;;;;5088062;28;20202;-64
2021/04/08 09:01:42;;;;;;;6.07;2.70;;;5.70;99.90;;;;;;5087417;28;20698;-65
2021/04/08 09:04:10;;;;;;;5.13;2.30;;;5.40;99.90;;;;;;5090128;28;20332;-64
2021/04/08 09:06:55;;;;;;;7.20;2.30;;;5.10;99.90;;;;;;5091842;28;20195;-65
2021/04/08 09:09:24;;;;;;;3.60;2.00;;;4.90;99.90;;;;;;5092159;28;20204;-64
2021/04/08 09:11:52;;;;;;;5.50;2.27;;;4.90;99.90;;;;;;5091490;28;20756;-64
2021/04/08 09:14:20;;;;;;;2.83;1.80;;;5.10;99.90;;;;;;5091525;28;20895;-64
2021/04/08 09:16:48;;;;;;;4.73;2.00;;;5.30;99.90;;;;;;5091803;28;20247;-62
2021/04/08 09:19:25;;;;;;;4.27;2.20;;;5.60;99.90;;;;;;5091579;28;20205;-61
2021/04/08 09:21:55;;;;;;;4.83;2.30;;;6.00;99.90;;;;;;5091308;28;20277;-62
2021/04/08 09:24:23;;;;;;;3.83;2.20;;;6.50;99.90;;;;;;5091806;28;20590;-62
2021/04/08 09:26:57;;;;;;;5.83;2.33;;;7.00;99.90;;;;;;5091167;28;20625;-63
2021/04/08 09:29:49;;;;;;;4.93;2.40;;;7.20;99.90;;;;;;5091779;28;20215;-64
2021/04/08 09:32:31;;;;;;;4.03;1.87;;;7.30;99.90;;;;;;5091520;28;20529;-66
2021/04/08 09:35:10;;;;;;;5.20;2.10;;;7.60;99.90;;;;;;5091725;28;20707;-68
2021/04/08 09:38:22;;;;;;;3.10;1.80;;;7.60;99.90;;;;;;5090624;28;20204;-68
2021/04/08 09:40:54;;;;;;;3.83;2.43;;;7.60;99.90;;;;;;5090514;28;20220;-64
2021/04/08 09:43:24;;;;;;;4.73;2.00;;;7.70;99.90;;;;;;5091150;28;20216;-64
2021/04/08 09:46:05;;;;;;;1.97;1.73;;;7.80;99.90;;;;;;5091452;28;20239;-65
2021/04/08 09:48:48;;;;;;;4.87;2.00;;;7.70;99.90;;;;;;5091490;28;20227;-66
2021/04/08 09:51:44;;;;;;;3.97;1.80;;;7.10;99.90;;;;;;5090409;28;20896;-66
2021/04/08 09:54:12;;;;;;;3.27;1.83;;;6.70;99.90;;;;;;5085860;28;20202;-65
2021/04/08 09:56:53;;;;;;;3.70;2.10;;;6.60;99.90;;;;;;5090693;28;20234;-66
2021/04/08 09:59:22;;;;;;;5.87;2.30;;;6.30;99.90;;;;;;5090927;28;20191;-62
2021/04/08 10:01:51;;;;;;;3.53;2.13;;;5.80;99.90;;;;;;5090771;28;20212;-62
2021/04/08 10:04:23;;;;;;;4.53;2.40;;;5.60;99.90;;;;;;5090698;28;20394;-61
2021/04/08 10:07:01;;;;;;;6.20;3.20;;;5.50;99.90;;;;;;5090964;28;20209;-57
2021/04/08 10:09:28;;;;;;;4.47;2.50;;;5.60;99.90;;;;;;5090656;28;20244;-58
2021/04/08 10:11:55;;;;;;;4.40;2.40;;;5.90;99.90;;;;;;5089993;28;20294;-56
2021/04/08 10:14:23;;;;;;;4.83;2.07;;;6.40;99.90;;;;;;5090489;28;20642;-55
2021/04/08 10:17:04;;;;;;;5.47;2.33;;;7.00;99.90;;;;;;5090135;28;20241;-53
2021/04/08 10:19:33;;;;;;;4.87;2.10;;;7.40;99.90;;;;;;5090722;28;20223;-57
2021/04/08 10:22:01;;;;;;;5.33;2.43;;;7.50;99.90;;;;;;5089489;28;20654;-58
2021/04/08 10:24:34;;;;;;;5.97;2.40;;;7.60;99.90;;;;;;5090230;28;20886;-58
2021/04/08 10:27:02;;;;;;;4.57;2.30;;;7.80;99.90;;;;;;5090220;28;20235;-59
2021/04/08 10:29:33;;;;;;;3.47;1.77;;;8.00;99.90;;;;;;5090113;28;20623;-52
2021/04/08 10:32:01;;;;;;;4.43;1.40;;;7.70;99.90;;;;;;5090299;28;20344;-60
2021/04/08 10:34:35;;;;;;;5.50;1.80;;;7.30;99.90;;;;;;5090225;28;20203;-57
2021/04/08 10:37:05;;;;;;;3.37;1.47;;;6.80;99.90;;;;;;5089891;28;20674;-57
2021/04/08 10:39:34;;;;;;;3.77;1.57;;;6.50;99.90;;;;;;5090334;28;20227;-57
2021/04/08 10:42:04;;;;;;;5.57;2.20;;;6.20;99.90;;;;;;5089972;28;20206;-57
2021/04/08 10:44:34;;;;;;;3.70;1.70;;;6.30;99.90;;;;;;5089609;28;20215;-64
2021/04/08 10:47:09;;;;;;;2.30;1.60;;;6.60;99.90;;;;;;5090196;28;20571;-60
2021/04/08 10:49:38;;;;;;;4.40;1.60;;;6.90;99.90;;;;;;5090201;28;20187;-60
2021/04/08 10:52:08;;;;;;;4.53;1.90;;;7.10;99.90;;;;;;5089591;28;20724;-59
2021/04/08 10:54:36;;;;;;;3.13;1.90;;;7.40;99.90;;;;;;5089938;28;20366;-61
2021/04/08 10:57:04;;;;;;;3.10;1.60;;;7.40;99.90;;;;;;5088531;28;20196;-63
2021/04/08 10:59:32;;;;;;;2.83;1.80;;;7.20;99.90;;;;;;5088821;28;20210;-63
2021/04/08 11:02:00;;;;;;;2.47;1.80;;;7.00;99.90;;;;;;5089367;28;20563;-62
2021/04/08 11:04:27;;;;;;;3.63;1.80;;;6.80;99.90;;;;;;5089654;28;20216;-61
2021/04/08 11:06:58;;;;;;;3.40;1.80;;;6.80;99.90;;;;;;5089367;28;20242;-63
2021/04/08 11:09:26;;;;;;;5.13;2.07;;;7.20;99.90;;;;;;5089829;28;20226;-63
2021/04/08 11:11:55;;;;;;;3.83;1.73;;;7.70;99.90;;;;;;5089453;28;20265;-62
2021/04/08 11:14:23;;;;;;;2.80;1.70;;;8.20;99.90;;;;;;5089459;28;20196;-62
2021/04/08 11:16:51;;;;;;;3.60;2.30;;;8.60;99.90;;;;;;5089341;28;20206;-63
2021/04/08 11:19:18;;;;;;;3.57;2.00;;;8.50;99.90;;;;;;5089069;28;20204;-69
2021/04/08 11:21:46;;;;;;;6.03;2.40;;;8.50;99.90;;;;;;5089326;28;20287;-66
2021/04/08 11:24:14;;;;;;;4.70;2.10;;;8.40;99.90;;;;;;5096345;28;20248;-65
2021/04/08 11:26:50;;;;;;;2.43;1.50;;;8.50;99.90;;;;;;5098791;28;20234;-63
2021/04/08 11:29:21;;;;;;;2.73;1.90;;;8.40;99.90;;;;;;5093692;28;20207;-63
2021/04/08 11:31:59;;;;;;;2.83;1.60;;;8.30;99.90;;;;;;5082765;28;20216;-63
2021/04/08 11:34:26;;;;;;;2.83;1.50;;;8.40;99.90;;;;;;5078041;28;20223;-62
2021/04/08 11:36:54;;;;;;;3.50;1.73;;;8.50;99.90;;;;;;5077595;28;20212;-63
2021/04/08 11:39:22;;;;;;;2.73;1.70;;;8.60;99.90;;;;;;5068629;28;20206;-61
2021/04/08 11:41:50;;;;;;;2.57;1.60;;;8.80;99.90;;;;;;5073227;28;20200;-63
2021/04/08 11:44:25;;;;;;;1.50;1.40;;;9.00;99.90;;;;;;5088792;28;20599;-63
2021/04/08 11:46:52;;;;;;;2.93;2.00;;;9.20;99.90;;;;;;5089548;28;20203;-62
2021/04/08 11:49:20;;;;;;;2.90;1.53;;;9.30;99.90;;;;;;5076410;28;20759;-64
2021/04/08 11:51:48;;;;;;;2.67;1.57;;;9.50;99.90;;;;;;5073007;28;20214;-62
2021/04/08 11:54:18;;;;;;;2.17;1.70;;;9.70;99.90;;;;;;5069872;28;20823;-63
2021/04/08 11:56:46;;;;;;;2.80;1.70;;;9.80;99.90;;;;;;5069685;28;20181;-63
2021/04/08 11:59:18;;;;;;;3.73;1.70;;;9.60;99.90;;;;;;5070041;28;20200;-63
2021/04/08 12:01:47;;;;;;;4.80;1.60;;;9.60;99.90;;;;;;5069867;28;20191;-62
2021/04/08 12:04:18;;;;;;;2.23;1.60;;;9.60;99.90;;;;;;5069911;28;20233;-62
2021/04/08 12:06:47;;;;;;;3.90;1.50;;;9.60;99.90;;;;;;5069529;28;20236;-62
2021/04/08 12:09:14;;;;;;;3.13;2.00;;;9.40;99.90;;;;;;5069412;28;20200;-62
2021/04/08 12:11:56;;;;;;;3.37;1.90;;;9.00;99.90;;;;;;5073619;28;20207;-62
2021/04/08 12:14:24;;;;;;;3.43;2.00;;;8.60;99.90;;;;;;5089630;28;20259;-64
2021/04/08 12:17:02;;;;;;;3.53;1.80;;;8.10;99.90;;;;;;5089656;28;20281;-62
2021/04/08 12:19:29;;;;;;;4.17;1.80;;;7.80;99.90;;;;;;5089835;28;20196;-62
2021/04/08 12:22:01;;;;;;;2.83;1.50;;;7.70;99.90;;;;;;5089739;28;20240;-63
2021/04/08 12:24:28;;;;;;;5.90;1.60;;;7.60;99.90;;;;;;5089526;28;20281;-63
2021/04/08 12:26:56;;;;;;;2.47;1.43;;;7.50;99.90;;;;;;5089055;28;20235;-62
2021/04/08 12:29:24;;;;;;;2.10;1.27;;;7.50;99.90;;;;;;5089334;28;20210;-63
2021/04/08 12:31:54;;;;;;;1.73;1.30;;;7.50;99.90;;;;;;5083830;28;20205;-64
2021/04/08 12:34:21;;;;;;;2.60;1.50;;;7.50;99.90;;;;;;5081923;28;20208;-63
2021/04/08 12:36:49;;;;;;;2.07;1.23;;;7.50;99.90;;;;;;5072953;28;20254;-64
2021/04/08 12:39:16;;;;;;;2.07;1.30;;;7.60;99.90;;;;;;5078721;28;20208;-66
2021/04/08 12:41:44;;;;;;;1.90;1.30;;;7.80;99.90;;;;;;5093487;28;20260;-67
2021/04/08 12:44:11;;;;;;;1.93;1.37;;;7.90;99.90;;;;;;5093049;28;20219;-60
2021/04/08 12:46:38;;;;;;;3.47;1.60;;;7.90;99.90;;;;;;5093574;28;20204;-63
2021/04/08 12:49:05;;;;;;;2.87;1.43;;;7.90;99.90;;;;;;5093833;28;20204;-62
2021/04/08 12:51:32;;;;;;;2.50;1.60;;;8.00;99.90;;;;;;5093147;28;20200;-62
2021/04/08 12:53:59;;;;;;;2.63;1.67;;;8.20;99.90;;;;;;5092581;28;20317;-62
2021/04/08 12:56:26;;;;;;;4.23;1.77;;;8.40;99.90;;;;;;5092922;28;20245;-60
2021/04/08 12:58:53;;;;;;;2.60;1.87;;;8.70;99.90;;;;;;5092916;28;20326;-62
2021/04/08 13:01:20;;;;;;;1.80;1.63;;;8.90;99.90;;;;;;5072828;28;20291;-61
2021/04/08 13:03:48;;;;;;;3.50;1.70;;;8.80;99.90;;;;;;5084809;28;20307;-58
2021/04/08 13:06:16;;;;;;;4.07;2.10;;;8.70;99.90;;;;;;5092771;28;20195;-59
2021/04/08 13:08:43;;;;;;;4.83;1.70;;;8.70;99.90;;;;;;5092382;28;20253;-61
2021/04/08 13:11:10;;;;;;;3.57;1.90;;;8.70;99.90;;;;;;5092390;28;20731;-60
2021/04/08 13:13:40;;;;;;;2.80;1.70;;;8.80;99.90;;;;;;5091471;28;20177;-66